WEATHER DATA

YESTERDAY
Time Temp. Dewp. Hum. Wind dir Wind speed Wind gust Bar. 1h Prec. 24h Prec.
00:01 11 11 100 270 0.6 0.8 1019 0.0000 0.0000
00:11 10.9 10.9 100 270 0.3 0.8 1019.2 0.0000 0.0000
00:21 10.7 10.5 99 22 0.3 0.8 1019.2 0.0000 0.0000
00:32 10.6 10.4 99 302 0.3 0.8 1019.3 0.0000 0.0000
00:42 10.5 10.3 99 333 0.3 0.8 1019.3 0.0000 0.0000
00:51 10.4 10.4 100 348 0.3 0.8 1019.3 0.0000 0.0000
01:02 10.3 10.3 100 45 0.3 1.4 1019.3 0.0000 0.0000
01:12 10.2 10.2 100 333 0.3 0.8 1019.4 0.0000 0.0000
01:22 10 10 100 48 0.3 0.8 1019.4 0.0000 0.0000
01:32 9.9 9.9 100 59 0.3 0.8 1019.4 0.0000 0.0000
01:43 9.8 9.8 100 90 0.3 0.8 1019.2 0.0000 0.0000
01:52 9.7 9.7 100 56 0.3 1.1 1019.1 0.0000 0.0000
02:02 9.7 9.7 100 45 0.3 0.8 1019.3 0.0000 0.0000
02:12 9.7 9.7 100 38 0.3 0.6 1019.3 0.0000 0.0000
02:23 9.8 9.8 100 90 0.6 1.7 1018.9 0.0000 0.0000
02:33 9.9 9.9 100 90 0.6 1.4 1019.1 0.0000 0.0000
02:42 9.9 9.9 100 90 0.3 1.7 1019 0.0000 0.0000
02:53 9.8 9.8 100 90 0.6 0.8 1018.9 0.0000 0.0000
03:03 9.7 9.7 100 90 0.3 1.1 1018.8 0.0000 0.0000
03:13 9.7 9.7 100 90 0.3 0.8 1018.8 0.0000 0.0000
03:23 9.6 9.6 100 0 0.3 0.6 1018.8 0.0000 0.0000
03:33 9.6 9.6 100 180 0.3 0.6 1018.9 0.0000 0.0000
03:43 9.6 9.6 100 307 0.3 0.8 1019 0.0000 0.0000
03:53 9.5 9.5 100 32 0.3 0.8 1019.1 0.0000 0.0000
04:04 9.4 9.4 100 45 0.3 0.8 1019.3 0.0000 0.0000
04:14 9.3 9.3 100 53 0.3 0.8 1019.3 0.0000 0.0000
04:24 9.2 9.2 100 90 0.3 0.8 1019.3 0.0000 0.0000
04:34 9.2 9.2 100 90 0.3 0.8 1019.3 0.0000 0.0000
04:44 9.1 9.1 100 54 0.3 0.8 1019.3 0.0000 0.0000
04:54 8.9 8.9 100 60 0.3 0.8 1019.3 0.0000 0.0000
05:04 8.8 8.8 100 90 0.3 0.6 1019.2 0.0000 0.0000
05:14 8.8 8.8 100 270 0.3 0.8 1019.2 0.0000 0.0000
05:25 8.7 8.7 100 198 0.3 0.8 1019.2 0.0000 0.0000
05:34 8.6 8.6 100 225 0.3 0.6 1019.2 0.0000 0.0000
05:44 8.5 8.5 100 0.3 0.8 1019.2 0.0000 0.0000
05:55 8.5 8.5 100 270 0.3 0.6 1019.3 0.0000 0.0000
06:05 8.4 8.4 100 239 0.3 0.8 1019.2 0.0000 0.0000
06:15 8.3 8.3 100 45 0.3 0.8 1019.1 0.0000 0.0000
06:25 8.2 8.2 100 45 0.3 0.6 1019.2 0.0000 0.0000
06:40 8.1 8.1 100 45 0.3 0.8 1019.2 0.0000 0.0000
06:50 8.1 8.1 100 26 0.3 0.6 1019.2 0.0000 0.0000
07:00 8.1 8.1 100 18 0.3 0.8 1019.3 0.0000 0.0000
07:10 8.1 8.1 100 12 0.3 0.6 1019.4 0.0000 0.0000
07:20 8.1 8.1 100 315 0.3 0.8 1019.5 0.0000 0.0000
07:30 8.1 8.1 100 315 0.3 0.8 1019.6 0.0000 0.0000
07:41 8 8 100 35 0.3 0.6 1019.6 0.0000 0.0000
07:56 8.1 8.1 100 90 0.3 0.8 1019.6 0.0000 0.0000
08:16 8.4 8.4 100 129 0.3 0.8 1019.6 0.0000 0.0000
08:26 8.6 8.6 100 90 0.6 1.1 1019.6 0.0000 0.0000
08:36 8.8 8.8 100 180 0.3 1.1 1019.7 0.0000 0.0000
08:46 9.2 9.2 100 225 0.6 1.1 1019.7 0.0000 0.0000
08:56 9.5 9.5 100 235 0.8 2.2 1019.8 0.0000 0.0000
09:06 9.8 9.8 100 225 0.6 1.9 1019.7 0.0000 0.0000
09:16 10.3 10.3 100 248 0.8 2.2 1019.8 0.0000 0.0000
09:27 10.7 10.7 100 45 0.6 1.1 1019.8 0.0000 0.0000
09:37 11.1 11.1 100 126 0.3 1.1 1019.8 0.0000 0.0000
09:47 11.5 11.5 100 270 0.3 0.8 1020.1 0.0000 0.0000
09:57 11.9 11.9 100 233 0.3 1.1 1020.1 0.0000 0.0000
10:07 12.2 12.2 100 228 0.6 1.4 1020.3 0.0000 0.0000
10:17 12.6 12.6 100 270 0.3 0.8 1020.4 0.0000 0.0000
10:27 13 13 100 212 0.3 1.1 1020.4 0.0000 0.0000
10:42 13.5 13.5 100 228 2.5 6.7 1020.4 0.0000 0.0000
10:57 14.1 14.1 100 248 3.1 7.5 1020.3 0.0000 0.0000
11:07 14.3 14.3 100 234 3.9 6.9 1020.5 0.0000 0.0000
11:18 14.6 14.6 100 233 3.9 6.7 1020.6 0.0000 0.0000
11:28 14.9 14.9 100 226 3.6 6.9 1020.6 0.0000 0.0000
11:42 15.4 15.2 99 225 3.1 5.3 1020.6 0.0000 0.0000
11:53 15.7 15.4 98 240 3.1 4.7 1020.6 0.0000 0.0000
12:03 16 15.5 97 252 2.8 4.4 1020.6 0.0000 0.0000
12:13 16.3 15.7 96 231 2.5 4.2 1020.6 0.0000 0.0000
12:23 16.6 15.6 94 252 2.2 4.4 1020.6 0.0000 0.0000
12:38 17.2 16.1 93 270 2.2 4.2 1020.5 0.0000 0.0000
12:48 18.5 16.8 90 270 1.4 3.3 1020.5 0.0000 0.0000
12:58 19 16.4 85 229 1.1 2.2 1020.2 0.0000 0.0000
13:09 18.9 16.1 84 222 1.1 1.7 1020.1 0.0000 0.0000
13:19 19 16.2 84 257 1.4 2.2 1020 0.0000 0.0000
13:29 19.2 16.2 83 199 1.1 2.5 1019.8 0.0000 0.0000
14:25 20.2 16.2 78 206 0.3 0.8 1019.4 0.0000 0.0000
14:39 20.1 16.3 79 213 0.3 0.8 1019.4 0.0000 0.0000
14:50 20 16.1 78 213 0.6 1.1 1019.3 0.0000 0.0000
15:00 19.9 16 78 135 0.3 0.6 1019.4 0.0000 0.0000
15:10 19.9 16 78 201 0.3 0.8 1019.3 0.0000 0.0000
15:19 19.8 16.1 79 189 0.3 1.1 1019.4 0.0000 0.0000
15:30 19.7 16 79 204 0.6 1.1 1019.4 0.0000 0.0000
15:40 19.5 16 80 201 0.8 1.4 1019.5 0.0000 0.0000
15:50 19.3 15.8 80 222 0.6 1.4 1019.5 0.0000 0.0000
16:00 19.1 16 82 216 0.6 1.4 1019.6 0.0000 0.0000
16:10 18.9 15.8 82 215 0.6 1.4 1019.5 0.0000 0.0000
16:20 18.7 15.8 83 216 0.6 1.1 1019.4 0.0000 0.0000
16:30 18.4 15.6 84 270 0.3 1.1 1019.4 0.0000 0.0000
16:41 18 15.4 85 320 0.3 0.8 1019.5 0.0000 0.0000
16:50 17.7 15.3 86 309 0.3 1.1 1019.7 0.0000 0.0000
17:00 17.3 15.3 88 315 0.3 0.8 1019.8 0.0000 0.0000
17:10 16.9 15.1 89 330 0.3 0.8 1019.8 0.0000 0.0000
17:21 16.6 15 90 319 0.3 1.1 1020 0.0000 0.0000
17:30 16.2 14.7 91 319 0.3 0.8 1020 0.0000 0.0000
17:40 15.9 14.4 91 319 0.3 1.1 1020.2 0.0000 0.0000
17:51 15.6 14.3 92 315 0.3 0.8 1020.1 0.0000 0.0000
18:01 15.2 14.1 93 345 0.3 0.8 1019.7 0.0000 0.0000
18:11 14.9 13.9 94 315 0.3 0.8 1019.8 0.0000 0.0000
18:21 14.7 13.7 94 324 0.3 0.8 1020 0.0000 0.0000
18:31 14.4 13.6 95 351 0.3 0.8 1020 0.0000 0.0000
18:41 14.2 13.4 95 336 0.3 0.8 1020 0.0000 0.0000
18:50 13.9 13.3 96 315 0.3 0.8 1020 0.0000 0.0000
19:01 13.7 13.1 96 320 0.3 0.8 1020 0.0000 0.0000
19:11 13.5 13 97 325 0.3 0.8 1020.1 0.0000 0.0000
19:21 13.4 12.9 97 306 0.3 0.8 1020.1 0.0000 0.0000
19:31 13.2 12.7 97 330 0.3 0.8 1020.1 0.0000 0.0000
19:41 13 12.5 97 348 0.3 0.8 1020.1 0.0000 0.0000
19:51 12.8 12.5 98 315 0.3 0.8 1020 0.0000 0.0000
20:01 12.7 12.4 98 335 0.3 0.6 1019.7 0.0000 0.0000
20:11 12.7 12.4 98 270 0.3 0.8 1019.7 0.0000 0.0000
20:21 12.5 12.2 98 339 0.3 1.1 1019.7 0.0000 0.0000
20:31 12.4 12.1 98 323 0.3 0.8 1019.8 0.0000 0.0000
20:42 12.2 11.9 98 325 0.3 0.8 1019.7 0.0000 0.0000
20:51 12.1 11.9 99 354 0.3 0.8 1019.8 0.0000 0.0000
21:01 12 11.8 99 330 0.3 0.6 1019.8 0.0000 0.0000
21:11 11.9 11.7 99 319 0.3 0.8 1020 0.0000 0.0000
21:21 11.8 11.6 99 306 0.3 0.6 1020.1 0.0000 0.0000
21:31 11.7 11.5 99 329 0.3 0.8 1020 0.0000 0.0000
21:41 11.6 11.4 99 319 0.3 0.8 1020.1 0.0000 0.0000
21:52 11.5 11.3 99 315 0.3 0.8 1020.1 0.0000 0.0000
22:01 11.4 11.2 99 315 0.3 0.6 1020.1 0.0000 0.0000
22:11 11.3 11.1 99 11 0.3 0.6 1019.7 0.0000 0.0000
22:22 11.2 11.2 100 308 0.3 0.8 1020.1 0.0000 0.0000
22:32 11.1 11.1 100 354 0.3 0.6 1020.1 0.0000 0.0000
22:41 11 11 100 335 0.3 0.6 1020 0.0000 0.0000
22:51 10.9 10.9 100 329 0.3 0.6 1020 0.0000 0.0000
23:02 10.9 10.9 100 0 0.3 0.6 1020 0.0000 0.0000
23:12 10.8 10.8 100 338 0.3 0.8 1020.1 0.0000 0.0000
23:32 10.7 10.7 100 30 0.3 0.6 1020.1 0.0000 0.0000
23:42 10.6 10.6 100 338 0.3 0.6 1020.2 0.0000
23:51 10.6 10.6 100 315 0.3 0.8 1020.3 0.0000

DAY STATISTIC

2019-10-22
TEMPERATURE
AVERAGE
12.5
HIGH
20.2
14:25
LOW
8.0
07:41
PRESSURE
AVERAGE
1019.7
HIGH
1020.6
11:18
LOW
1018.8
03:03
DEWPOINT
AVERAGE
11.9
HIGH
16.8
12:48
LOW
8.0
07:41
HUMIDITY
AVERAGE
96
HIGH
100
00:01
LOW
78
14:25
WIND SPEED
AVERAGE
0.6
HIGH
3.9
11:07
WIND GUST
AVERAGE
1.3
HIGH
7.5
10:57
WIND DIRECTION
PREVAILING
NW
27.8%
N
11.3
NE
13.5
E
9.0
SE
2.3
S
6.0
SW
18.0
W
11.3
NW
27.8
PRECIPITATION
RAIN HOUR
0.0
RAIN DAY
0.0
TEMPERATURE (°C)
LOW
8.0
HIGH
20.2
AVERAGE
12.5
PRESSURE (hpa)
LOW
1018.8
HIGH
1020.6
AVERAGE
1019.7
DEVICE